sensor_id;sensor_type;location;lat;lon;timestamp;pressure;altitude;pressure_sealevel;temperature;humidity
78117;BME280;69042;59.120;37.904;2023-12-07T00:01:21;102189.38;;;-8.87;68.14
78117;BME280;69042;59.120;37.904;2023-12-07T00:03:47;102182.56;;;-8.88;68.37
78117;BME280;69042;59.120;37.904;2023-12-07T00:06:13;102182.34;;;-8.91;68.48
78117;BME280;69042;59.120;37.904;2023-12-07T00:08:40;102184.78;;;-8.93;68.08
78117;BME280;69042;59.120;37.904;2023-12-07T00:11:06;102193.13;;;-8.94;68.69
78117;BME280;69042;59.120;37.904;2023-12-07T00:13:32;102185.63;;;-8.92;68.39
78117;BME280;69042;59.120;37.904;2023-12-07T00:15:58;102181.34;;;-8.93;68.84
78117;BME280;69042;59.120;37.904;2023-12-07T00:18:24;102184.66;;;-8.94;68.41
78117;BME280;69042;59.120;37.904;2023-12-07T00:20:51;102194.78;;;-8.94;68.03
78117;BME280;69042;59.120;37.904;2023-12-07T00:23:17;102191.25;;;-8.96;68.62
78117;BME280;69042;59.120;37.904;2023-12-07T00:25:43;102186.00;;;-8.99;68.73
78117;BME280;69042;59.120;37.904;2023-12-07T00:28:11;102192.78;;;-8.98;68.55
78117;BME280;69042;59.120;37.904;2023-12-07T00:30:37;102190.72;;;-9.04;68.18
78117;BME280;69042;59.120;37.904;2023-12-07T00:33:04;102191.59;;;-9.04;68.51
78117;BME280;69042;59.120;37.904;2023-12-07T00:35:30;102201.84;;;-9.02;68.50
78117;BME280;69042;59.120;37.904;2023-12-07T00:37:56;102204.25;;;-9.04;68.82
78117;BME280;69042;59.120;37.904;2023-12-07T00:40:23;102203.50;;;-9.03;68.77
78117;BME280;69042;59.120;37.904;2023-12-07T00:42:49;102203.28;;;-9.06;68.41
78117;BME280;69042;59.120;37.904;2023-12-07T00:45:16;102206.59;;;-9.07;68.62
78117;BME280;69042;59.120;37.904;2023-12-07T00:47:42;102207.34;;;-9.08;68.53
78117;BME280;69042;59.120;37.904;2023-12-07T00:50:11;102206.28;;;-9.11;68.28
78117;BME280;69042;59.120;37.904;2023-12-07T00:52:38;102206.16;;;-9.13;68.76
78117;BME280;69042;59.120;37.904;2023-12-07T00:55:04;102202.75;;;-9.13;68.53
78117;BME280;69042;59.120;37.904;2023-12-07T00:57:30;102213.41;;;-9.17;68.49
78117;BME280;69042;59.120;37.904;2023-12-07T00:59:57;102207.91;;;-9.24;69.04
78117;BME280;69042;59.120;37.904;2023-12-07T01:02:23;102211.22;;;-9.25;69.28
78117;BME280;69042;59.120;37.904;2023-12-07T01:04:50;102224.75;;;-9.24;68.67
78117;BME280;69042;59.120;37.904;2023-12-07T01:07:16;102222.22;;;-9.24;68.97
78117;BME280;69042;59.120;37.904;2023-12-07T01:09:42;102216.97;;;-9.27;69.08
78117;BME280;69042;59.120;37.904;2023-12-07T01:12:08;102221.13;;;-9.28;69.27
78117;BME280;69042;59.120;37.904;2023-12-07T01:14:35;102227.09;;;-9.27;69.47
78117;BME280;69042;59.120;37.904;2023-12-07T01:17:01;102223.00;;;-9.25;69.49
78117;BME280;69042;59.120;37.904;2023-12-07T01:19:28;102229.03;;;-9.23;69.31
78117;BME280;69042;59.120;37.904;2023-12-07T01:21:54;102227.50;;;-9.21;69.13
78117;BME280;69042;59.120;37.904;2023-12-07T01:24:20;102235.75;;;-9.24;69.07
78117;BME280;69042;59.120;37.904;2023-12-07T01:26:46;102232.22;;;-9.26;69.54
78117;BME280;69042;59.120;37.904;2023-12-07T01:29:12;102245.88;;;-9.24;69.65
78117;BME280;69042;59.120;37.904;2023-12-07T01:31:40;102243.34;;;-9.24;68.92
78117;BME280;69042;59.120;37.904;2023-12-07T01:34:06;102240.94;;;-9.22;69.69
78117;BME280;69042;59.120;37.904;2023-12-07T01:36:33;102249.66;;;-9.18;69.31
78117;BME280;69042;59.120;37.904;2023-12-07T01:38:59;102252.38;;;-9.15;69.06
78117;BME280;69042;59.120;37.904;2023-12-07T01:41:26;102250.72;;;-9.15;69.41
78117;BME280;69042;59.120;37.904;2023-12-07T01:43:52;102252.38;;;-9.15;69.32
78117;BME280;69042;59.120;37.904;2023-12-07T01:46:18;102252.38;;;-9.15;69.61
78117;BME280;69042;59.120;37.904;2023-12-07T01:48:45;102253.16;;;-9.16;69.46
78117;BME280;69042;59.120;37.904;2023-12-07T01:51:16;102245.78;;;-9.13;69.60
78117;BME280;69042;59.120;37.904;2023-12-07T01:53:43;102247.66;;;-9.11;69.16
78117;BME280;69042;59.120;37.904;2023-12-07T01:56:09;102248.41;;;-9.12;68.76
78117;BME280;69042;59.120;37.904;2023-12-07T01:58:36;102250.84;;;-9.13;69.08
78117;BME280;69042;59.120;37.904;2023-12-07T02:01:03;102252.28;;;-9.17;69.17
78117;BME280;69042;59.120;37.904;2023-12-07T02:03:31;102252.81;;;-9.21;69.07
78117;BME280;69042;59.120;37.904;2023-12-07T02:05:57;102255.34;;;-9.21;69.29
78117;BME280;69042;59.120;37.904;2023-12-07T02:08:24;102253.38;;;-9.25;69.26
78117;BME280;69042;59.120;37.904;2023-12-07T02:10:53;102260.06;;;-9.26;69.35
78117;BME280;69042;59.120;37.904;2023-12-07T02:13:20;102260.88;;;-9.27;69.24
78117;BME280;69042;59.120;37.904;2023-12-07T02:22:20;102259.75;;;-9.30;69.48
78117;BME280;69042;59.120;37.904;2023-12-07T02:25:04;102262.28;;;-9.30;69.68
78117;BME280;69042;59.120;37.904;2023-12-07T02:27:42;102263.94;;;-9.31;69.52
78117;BME280;69042;59.120;37.904;2023-12-07T02:30:10;102268.13;;;-9.31;69.85
78117;BME280;69042;59.120;37.904;2023-12-07T02:32:37;102275.19;;;-9.27;69.43
78117;BME280;69042;59.120;37.904;2023-12-07T02:35:05;102275.38;;;-9.24;69.65
78117;BME280;69042;59.120;37.904;2023-12-07T02:37:41;102273.72;;;-9.24;69.33
78117;BME280;69042;59.120;37.904;2023-12-07T02:40:09;102279.78;;;-9.22;69.74
78117;BME280;69042;59.120;37.904;2023-12-07T02:42:39;102279.03;;;-9.20;69.22
78117;BME280;69042;59.120;37.904;2023-12-07T02:45:07;102280.78;;;-9.19;69.29
78117;BME280;69042;59.120;37.904;2023-12-07T02:47:34;102292.56;;;-9.20;69.18
78117;BME280;69042;59.120;37.904;2023-12-07T02:50:01;102297.63;;;-9.20;68.91
78117;BME280;69042;59.120;37.904;2023-12-07T02:52:27;102300.91;;;-9.21;68.97
78117;BME280;69042;59.120;37.904;2023-12-07T02:54:54;102295.84;;;-9.21;68.86
78117;BME280;69042;59.120;37.904;2023-12-07T02:57:20;102307.75;;;-9.20;68.97
78117;BME280;69042;59.120;37.904;2023-12-07T02:59:47;102310.50;;;-9.17;69.18
78117;BME280;69042;59.120;37.904;2023-12-07T03:02:13;102309.41;;;-9.20;69.18
78117;BME280;69042;59.120;37.904;2023-12-07T03:04:39;102314.38;;;-9.22;68.76
78117;BME280;69042;59.120;37.904;2023-12-07T03:07:05;102320.19;;;-9.23;68.40
78117;BME280;69042;59.120;37.904;2023-12-07T03:09:32;102324.16;;;-9.27;69.01
78117;BME280;69042;59.120;37.904;2023-12-07T03:11:58;102325.81;;;-9.27;69.00
78117;BME280;69042;59.120;37.904;2023-12-07T03:14:24;102324.91;;;-9.28;68.54
78117;BME280;69042;59.120;37.904;2023-12-07T03:16:50;102323.03;;;-9.30;69.21
78117;BME280;69042;59.120;37.904;2023-12-07T03:19:16;102325.22;;;-9.35;69.68
78117;BME280;69042;59.120;37.904;2023-12-07T03:21:42;102329.53;;;-9.34;69.82
78117;BME280;69042;59.120;37.904;2023-12-07T03:24:09;102338.66;;;-9.36;69.32
78117;BME280;69042;59.120;37.904;2023-12-07T03:26:36;102341.84;;;-9.38;69.76
78117;BME280;69042;59.120;37.904;2023-12-07T03:29:02;102344.13;;;-9.42;69.85
78117;BME280;69042;59.120;37.904;2023-12-07T03:31:29;102347.56;;;-9.41;69.77
78117;BME280;69042;59.120;37.904;2023-12-07T03:34:14;102348.09;;;-9.45;69.25
78117;BME280;69042;59.120;37.904;2023-12-07T03:36:48;102347.19;;;-9.46;69.34
78117;BME280;69042;59.120;37.904;2023-12-07T03:39:15;102347.97;;;-9.47;69.65
78117;BME280;69042;59.120;37.904;2023-12-07T03:41:41;102347.09;;;-9.47;70.22
78117;BME280;69042;59.120;37.904;2023-12-07T03:44:07;102346.56;;;-9.43;70.25
78117;BME280;69042;59.120;37.904;2023-12-07T03:46:33;102349.44;;;-9.38;69.71
78117;BME280;69042;59.120;37.904;2023-12-07T03:49:00;102352.97;;;-9.36;69.91
78117;BME280;69042;59.120;37.904;2023-12-07T03:51:27;102359.13;;;-9.33;69.47
78117;BME280;69042;59.120;37.904;2023-12-07T03:53:54;102350.13;;;-9.29;70.01
78117;BME280;69042;59.120;37.904;2023-12-07T03:56:28;102359.59;;;-9.27;69.60
78117;BME280;69042;59.120;37.904;2023-12-07T03:58:56;102366.41;;;-9.26;69.55
78117;BME280;69042;59.120;37.904;2023-12-07T04:01:27;102369.94;;;-9.24;69.38
78117;BME280;69042;59.120;37.904;2023-12-07T04:03:55;102369.06;;;-9.24;69.50
78117;BME280;69042;59.120;37.904;2023-12-07T04:06:22;102376.13;;;-9.20;69.68
78117;BME280;69042;59.120;37.904;2023-12-07T04:08:49;102372.28;;;-9.15;69.98
78117;BME280;69042;59.120;37.904;2023-12-07T04:11:15;102376.13;;;-9.08;69.88
78117;BME280;69042;59.120;37.904;2023-12-07T04:13:41;102380.78;;;-9.03;69.90
78117;BME280;69042;59.120;37.904;2023-12-07T04:16:08;102387.19;;;-8.96;69.60
78117;BME280;69042;59.120;37.904;2023-12-07T04:18:35;102382.34;;;-8.93;69.38
78117;BME280;69042;59.120;37.904;2023-12-07T04:21:01;102381.47;;;-8.93;68.92
78117;BME280;69042;59.120;37.904;2023-12-07T04:23:28;102386.53;;;-8.93;69.50
78117;BME280;69042;59.120;37.904;2023-12-07T04:25:54;102377.94;;;-8.95;68.70
78117;BME280;69042;59.120;37.904;2023-12-07T04:28:21;102381.22;;;-8.96;69.20
78117;BME280;69042;59.120;37.904;2023-12-07T04:30:47;102380.34;;;-8.97;69.01
78117;BME280;69042;59.120;37.904;2023-12-07T04:33:13;102383.00;;;-8.95;69.24
78117;BME280;69042;59.120;37.904;2023-12-07T04:35:40;102376.06;;;-8.98;68.83
78117;BME280;69042;59.120;37.904;2023-12-07T04:38:24;102374.28;;;-8.99;69.13
78117;BME280;69042;59.120;37.904;2023-12-07T04:40:50;102373.28;;;-9.01;69.35
78117;BME280;69042;59.120;37.904;2023-12-07T04:43:16;102378.47;;;-8.99;69.05
78117;BME280;69042;59.120;37.904;2023-12-07T04:45:43;102380.00;;;-9.02;68.72
78117;BME280;69042;59.120;37.904;2023-12-07T04:48:09;102389.13;;;-9.04;68.75
78117;BME280;69042;59.120;37.904;2023-12-07T04:50:35;102390.69;;;-9.06;68.31
78117;BME280;69042;59.120;37.904;2023-12-07T04:53:01;102383.75;;;-9.08;69.13
78117;BME280;69042;59.120;37.904;2023-12-07T04:55:27;102386.28;;;-9.08;69.36
78117;BME280;69042;59.120;37.904;2023-12-07T04:57:54;102385.41;;;-9.09;68.54
78117;BME280;69042;59.120;37.904;2023-12-07T05:00:20;102394.53;;;-9.11;68.69
78117;BME280;69042;59.120;37.904;2023-12-07T05:02:47;102396.94;;;-9.12;68.46
78117;BME280;69042;59.120;37.904;2023-12-07T05:05:14;102401.78;;;-9.15;68.95
78117;BME280;69042;59.120;37.904;2023-12-07T05:07:40;102400.13;;;-9.15;68.53
78117;BME280;69042;59.120;37.904;2023-12-07T05:10:25;102409.25;;;-9.17;69.26
78117;BME280;69042;59.120;37.904;2023-12-07T05:13:09;102408.50;;;-9.16;68.62
78117;BME280;69042;59.120;37.904;2023-12-07T05:15:36;102411.91;;;-9.15;68.98
78117;BME280;69042;59.120;37.904;2023-12-07T05:18:02;102409.50;;;-9.14;69.10
78117;BME280;69042;59.120;37.904;2023-12-07T05:20:28;102418.31;;;-9.09;68.72
78117;BME280;69042;59.120;37.904;2023-12-07T05:22:55;102422.59;;;-9.08;69.36
78117;BME280;69042;59.120;37.904;2023-12-07T05:25:21;102422.84;;;-9.05;69.29
78117;BME280;69042;59.120;37.904;2023-12-07T05:27:47;102422.19;;;-9.02;69.13
78117;BME280;69042;59.120;37.904;2023-12-07T05:30:14;102414.69;;;-9.01;69.27
78117;BME280;69042;59.120;37.904;2023-12-07T05:32:40;102419.00;;;-8.99;69.54
78117;BME280;69042;59.120;37.904;2023-12-07T05:35:07;102419.22;;;-8.96;68.96
78117;BME280;69042;59.120;37.904;2023-12-07T05:37:33;102427.06;;;-8.93;69.08
78117;BME280;69042;59.120;37.904;2023-12-07T05:39:59;102417.69;;;-8.94;69.02
78117;BME280;69042;59.120;37.904;2023-12-07T05:42:25;102418.47;;;-8.95;68.95
78117;BME280;69042;59.120;37.904;2023-12-07T05:44:51;102423.53;;;-8.95;68.74
78117;BME280;69042;59.120;37.904;2023-12-07T05:47:18;102427.81;;;-8.94;68.92
78117;BME280;69042;59.120;37.904;2023-12-07T05:49:44;102430.34;;;-8.94;68.51
78117;BME280;69042;59.120;37.904;2023-12-07T05:52:10;102436.28;;;-8.94;68.68
78117;BME280;69042;59.120;37.904;2023-12-07T05:54:36;102431.22;;;-8.94;68.36
78117;BME280;69042;59.120;37.904;2023-12-07T05:57:02;102442.25;;;-8.93;68.62
78117;BME280;69042;59.120;37.904;2023-12-07T05:59:29;102441.34;;;-8.94;68.87
78117;BME280;69042;59.120;37.904;2023-12-07T06:01:55;102444.88;;;-8.92;69.35
78117;BME280;69042;59.120;37.904;2023-12-07T06:04:21;102443.47;;;-8.88;69.06
78117;BME280;69042;59.120;37.904;2023-12-07T06:06:48;102445.22;;;-8.87;68.45
78117;BME280;69042;59.120;37.904;2023-12-07T06:09:14;102450.19;;;-8.89;68.68
78117;BME280;69042;59.120;37.904;2023-12-07T06:11:40;102445.78;;;-8.91;67.95
78117;BME280;69042;59.120;37.904;2023-12-07T06:14:07;102440.47;;;-8.94;68.32
78117;BME280;69042;59.120;37.904;2023-12-07T06:16:33;102445.53;;;-8.94;68.31
78117;BME280;69042;59.120;37.904;2023-12-07T06:18:59;102446.97;;;-8.98;67.94
78117;BME280;69042;59.120;37.904;2023-12-07T06:21:25;102443.44;;;-9.00;68.65
78117;BME280;69042;59.120;37.904;2023-12-07T06:23:54;102447.59;;;-9.01;68.17
78117;BME280;69042;59.120;37.904;2023-12-07T06:26:20;102455.19;;;-9.01;68.19
78117;BME280;69042;59.120;37.904;2023-12-07T06:28:46;102446.72;;;-9.01;67.76
78117;BME280;69042;59.120;37.904;2023-12-07T06:31:13;102446.28;;;-9.07;67.79
78117;BME280;69042;59.120;37.904;2023-12-07T06:33:41;102452.97;;;-9.08;68.50
78117;BME280;69042;59.120;37.904;2023-12-07T06:36:08;102450.44;;;-9.08;68.07
78117;BME280;69042;59.120;37.904;2023-12-07T06:38:35;102448.81;;;-9.07;67.95
78117;BME280;69042;59.120;37.904;2023-12-07T06:41:01;102447.38;;;-9.04;68.59
78117;BME280;69042;59.120;37.904;2023-12-07T06:43:27;102443.19;;;-9.03;68.25
78117;BME280;69042;59.120;37.904;2023-12-07T06:45:53;102450.78;;;-9.03;68.08
78117;BME280;69042;59.120;37.904;2023-12-07T06:48:39;102455.00;;;-9.04;68.11
78117;BME280;69042;59.120;37.904;2023-12-07T06:51:05;102461.19;;;-9.00;68.29
78117;BME280;69042;59.120;37.904;2023-12-07T06:53:32;102455.47;;;-8.97;68.32
78117;BME280;69042;59.120;37.904;2023-12-07T06:55:58;102457.31;;;-8.95;67.97
78117;BME280;69042;59.120;37.904;2023-12-07T06:58:24;102466.69;;;-8.94;68.34
78117;BME280;69042;59.120;37.904;2023-12-07T07:00:51;102463.41;;;-8.93;68.16
78117;BME280;69042;59.120;37.904;2023-12-07T07:03:17;102466.16;;;-8.90;68.04
78117;BME280;69042;59.120;37.904;2023-12-07T07:05:44;102466.94;;;-8.91;68.30
78117;BME280;69042;59.120;37.904;2023-12-07T07:08:10;102463.63;;;-8.90;68.42
78117;BME280;69042;59.120;37.904;2023-12-07T07:10:36;102455.25;;;-8.89;67.86
78117;BME280;69042;59.120;37.904;2023-12-07T07:13:03;102478.94;;;-8.88;67.76
78117;BME280;69042;59.120;37.904;2023-12-07T07:15:33;102480.69;;;-8.87;67.62
78117;BME280;69042;59.120;37.904;2023-12-07T07:17:59;102479.94;;;-8.86;67.79
78117;BME280;69042;59.120;37.904;2023-12-07T07:20:27;102475.63;;;-8.87;67.66
78117;BME280;69042;59.120;37.904;2023-12-07T07:22:53;102482.22;;;-8.89;67.69
78117;BME280;69042;59.120;37.904;2023-12-07T07:25:19;102489.06;;;-8.88;67.42
78117;BME280;69042;59.120;37.904;2023-12-07T07:27:46;102480.59;;;-8.89;67.73
78117;BME280;69042;59.120;37.904;2023-12-07T07:30:12;102487.06;;;-8.92;67.43
78117;BME280;69042;59.120;37.904;2023-12-07T07:32:38;102488.94;;;-8.90;67.34
78117;BME280;69042;59.120;37.904;2023-12-07T07:35:05;102491.59;;;-8.88;67.31
78117;BME280;69042;59.120;37.904;2023-12-07T07:37:31;102486.41;;;-8.90;67.99
78117;BME280;69042;59.120;37.904;2023-12-07T07:39:57;102487.41;;;-8.88;67.49
78117;BME280;69042;59.120;37.904;2023-12-07T07:42:42;102485.13;;;-8.85;67.24
78117;BME280;69042;59.120;37.904;2023-12-07T07:45:27;102491.72;;;-8.87;67.47
78117;BME280;69042;59.120;37.904;2023-12-07T07:47:53;102489.06;;;-8.88;67.60
78117;BME280;69042;59.120;37.904;2023-12-07T07:50:20;102489.28;;;-8.85;67.61
78117;BME280;69042;59.120;37.904;2023-12-07T07:52:46;102497.88;;;-8.83;67.33
78117;BME280;69042;59.120;37.904;2023-12-07T07:55:12;102500.06;;;-8.88;66.69
78117;BME280;69042;59.120;37.904;2023-12-07T07:57:38;102506.47;;;-8.93;66.84
78117;BME280;69042;59.120;37.904;2023-12-07T08:00:05;102498.63;;;-8.96;66.49
78117;BME280;69042;59.120;37.904;2023-12-07T08:02:34;102501.78;;;-8.98;67.19
78117;BME280;69042;59.120;37.904;2023-12-07T08:05:02;102516.25;;;-8.97;67.39
78117;BME280;69042;59.120;37.904;2023-12-07T08:07:29;102508.00;;;-8.95;67.23
78117;BME280;69042;59.120;37.904;2023-12-07T08:09:55;102516.59;;;-8.93;67.30
78117;BME280;69042;59.120;37.904;2023-12-07T08:12:21;102516.72;;;-8.91;67.41
78117;BME280;69042;59.120;37.904;2023-12-07T08:14:49;102513.06;;;-8.95;66.98
78117;BME280;69042;59.120;37.904;2023-12-07T08:17:15;102516.72;;;-8.91;67.34
78117;BME280;69042;59.120;37.904;2023-12-07T08:19:42;102515.16;;;-8.89;67.12
78117;BME280;69042;59.120;37.904;2023-12-07T08:22:08;102513.53;;;-8.89;67.30
78117;BME280;69042;59.120;37.904;2023-12-07T08:24:35;102514.88;;;-8.82;67.19
78117;BME280;69042;59.120;37.904;2023-12-07T08:27:03;102520.28;;;-8.77;67.38
78117;BME280;69042;59.120;37.904;2023-12-07T08:29:29;102517.31;;;-8.72;67.16
78117;BME280;69042;59.120;37.904;2023-12-07T08:31:55;102515.91;;;-8.68;66.54
78117;BME280;69042;59.120;37.904;2023-12-07T08:34:21;102515.13;;;-8.67;66.79
78117;BME280;69042;59.120;37.904;2023-12-07T08:36:48;102516.03;;;-8.67;66.96
78117;BME280;69042;59.120;37.904;2023-12-07T08:39:14;102523.19;;;-8.61;66.98
78117;BME280;69042;59.120;37.904;2023-12-07T08:41:40;102517.69;;;-8.55;66.95
78117;BME280;69042;59.120;37.904;2023-12-07T08:44:06;102530.94;;;-8.48;67.41
78117;BME280;69042;59.120;37.904;2023-12-07T08:46:32;102526.41;;;-8.40;67.20
78117;BME280;69042;59.120;37.904;2023-12-07T08:48:59;102522.56;;;-8.35;66.54
78117;BME280;69042;59.120;37.904;2023-12-07T08:51:25;102517.03;;;-8.29;66.94
78117;BME280;69042;59.120;37.904;2023-12-07T08:53:51;102530.16;;;-8.23;67.72
78117;BME280;69042;59.120;37.904;2023-12-07T08:56:18;102525.63;;;-8.16;66.49
78117;BME280;69042;59.120;37.904;2023-12-07T08:58:45;102524.34;;;-8.10;66.87
78117;BME280;69042;59.120;37.904;2023-12-07T09:01:11;102522.13;;;-8.06;66.99
78117;BME280;69042;59.120;37.904;2023-12-07T09:03:56;102519.59;;;-7.94;67.59
78117;BME280;69042;59.120;37.904;2023-12-07T09:06:23;102523.75;;;-7.83;67.30
78117;BME280;69042;59.120;37.904;2023-12-07T09:08:49;102522.63;;;-7.75;67.58
78117;BME280;69042;59.120;37.904;2023-12-07T09:11:15;102520.78;;;-7.65;67.71
78117;BME280;69042;59.120;37.904;2023-12-07T09:13:41;102525.59;;;-7.57;67.12
78117;BME280;69042;59.120;37.904;2023-12-07T09:16:08;102522.72;;;-7.49;67.42
78117;BME280;69042;59.120;37.904;2023-12-07T09:18:34;102519.94;;;-7.41;66.99
78117;BME280;69042;59.120;37.904;2023-12-07T09:21:02;102523.56;;;-7.37;66.67
78117;BME280;69042;59.120;37.904;2023-12-07T09:23:28;102525.56;;;-7.33;66.55
78117;BME280;69042;59.120;37.904;2023-12-07T09:25:55;102521.56;;;-7.29;66.46
78117;BME280;69042;59.120;37.904;2023-12-07T09:28:21;102523.53;;;-7.25;66.35
78117;BME280;69042;59.120;37.904;2023-12-07T09:30:47;102528.72;;;-7.24;66.14
78117;BME280;69042;59.120;37.904;2023-12-07T09:33:13;102530.59;;;-7.21;65.87
78117;BME280;69042;59.120;37.904;2023-12-07T09:35:40;102532.13;;;-7.23;66.30
78117;BME280;69042;59.120;37.904;2023-12-07T09:38:06;102534.78;;;-7.22;66.07
78117;BME280;69042;59.120;37.904;2023-12-07T09:40:33;102538.09;;;-7.23;66.39
78117;BME280;69042;59.120;37.904;2023-12-07T09:42:59;102537.34;;;-7.22;66.34
78117;BME280;69042;59.120;37.904;2023-12-07T09:45:25;102547.50;;;-7.22;65.95
78117;BME280;69042;59.120;37.904;2023-12-07T09:47:52;102539.31;;;-7.18;66.02
78117;BME280;69042;59.120;37.904;2023-12-07T09:50:23;102540.31;;;-7.16;66.26
78117;BME280;69042;59.120;37.904;2023-12-07T09:52:51;102536.47;;;-7.22;65.82
78117;BME280;69042;59.120;37.904;2023-12-07T09:55:18;102541.53;;;-7.22;65.62
78117;BME280;69042;59.120;37.904;2023-12-07T09:57:49;102533.50;;;-7.28;65.83
78117;BME280;69042;59.120;37.904;2023-12-07T10:00:17;102533.94;;;-7.34;65.28
78117;BME280;69042;59.120;37.904;2023-12-07T10:02:45;102538.69;;;-7.39;65.69
78117;BME280;69042;59.120;37.904;2023-12-07T10:05:13;102527.53;;;-7.41;66.05
78117;BME280;69042;59.120;37.904;2023-12-07T10:07:41;102533.63;;;-7.39;65.69
78117;BME280;69042;59.120;37.904;2023-12-07T10:10:07;102531.00;;;-7.40;66.47
78117;BME280;69042;59.120;37.904;2023-12-07T10:12:34;102521.81;;;-7.38;66.29
78117;BME280;69042;59.120;37.904;2023-12-07T10:15:05;102531.50;;;-7.33;66.03
78117;BME280;69042;59.120;37.904;2023-12-07T10:18:06;102535.03;;;-7.30;66.03
78117;BME280;69042;59.120;37.904;2023-12-07T10:20:33;102534.16;;;-7.31;66.07
78117;BME280;69042;59.120;37.904;2023-12-07T10:23:07;102531.28;;;-7.24;66.80
78117;BME280;69042;59.120;37.904;2023-12-07T10:25:38;102539.88;;;-7.22;66.01
78117;BME280;69042;59.120;37.904;2023-12-07T10:28:05;102545.16;;;-7.19;66.64
78117;BME280;69042;59.120;37.904;2023-12-07T10:30:34;102536.09;;;-7.15;66.90
78117;BME280;69042;59.120;37.904;2023-12-07T10:33:03;102537.28;;;-7.10;66.12
78117;BME280;69042;59.120;37.904;2023-12-07T10:35:30;102535.63;;;-7.09;66.00
78117;BME280;69042;59.120;37.904;2023-12-07T10:37:57;102544.25;;;-7.07;66.52
78117;BME280;69042;59.120;37.904;2023-12-07T10:40:23;102546.69;;;-7.09;66.27
78117;BME280;69042;59.120;37.904;2023-12-07T10:42:57;102542.69;;;-7.05;66.96
78117;BME280;69042;59.120;37.904;2023-12-07T10:45:25;102549.75;;;-7.01;66.93
78117;BME280;69042;59.120;37.904;2023-12-07T10:48:07;102546.75;;;-6.96;66.98
78117;BME280;69042;59.120;37.904;2023-12-07T10:50:39;102547.06;;;-6.91;66.43
78117;BME280;69042;59.120;37.904;2023-12-07T10:53:10;102550.56;;;-6.89;66.41
78117;BME280;69042;59.120;37.904;2023-12-07T10:55:47;102556.25;;;-6.93;66.06
78117;BME280;69042;59.120;37.904;2023-12-07T10:58:17;102549.50;;;-6.93;66.18
78117;BME280;69042;59.120;37.904;2023-12-07T11:00:45;102558.88;;;-6.92;66.58
78117;BME280;69042;59.120;37.904;2023-12-07T11:03:16;102554.69;;;-6.91;66.50
78117;BME280;69042;59.120;37.904;2023-12-07T11:05:47;102553.91;;;-6.90;66.55
78117;BME280;69042;59.120;37.904;2023-12-07T11:13:28;102553.47;;;-6.96;66.21
78117;BME280;69042;59.120;37.904;2023-12-07T11:15:56;102552.50;;;-6.98;66.02
78117;BME280;69042;59.120;37.904;2023-12-07T11:18:26;102551.63;;;-6.99;66.11
78117;BME280;69042;59.120;37.904;2023-12-07T11:20:54;102556.50;;;-7.02;66.39
78117;BME280;69042;59.120;37.904;2023-12-07T11:23:21;102563.44;;;-6.99;66.25
78117;BME280;69042;59.120;37.904;2023-12-07T11:25:48;102555.94;;;-6.98;66.08
78117;BME280;69042;59.120;37.904;2023-12-07T11:28:16;102552.28;;;-7.01;66.12
78117;BME280;69042;59.120;37.904;2023-12-07T11:30:46;102556.69;;;-6.99;66.99
78117;BME280;69042;59.120;37.904;2023-12-07T11:33:14;102555.94;;;-6.98;66.97
78117;BME280;69042;59.120;37.904;2023-12-07T11:38:25;102556.66;;;-6.87;67.23
78117;BME280;69042;59.120;37.904;2023-12-07T11:40:53;102550.13;;;-6.83;66.82
78117;BME280;69042;59.120;37.904;2023-12-07T11:43:37;102552.84;;;-6.80;66.59
78117;BME280;69042;59.120;37.904;2023-12-07T11:46:06;102554.41;;;-6.82;66.30
78117;BME280;69042;59.120;37.904;2023-12-07T11:48:33;102555.00;;;-6.86;66.37
78117;BME280;69042;59.120;37.904;2023-12-07T11:51:01;102560.97;;;-6.86;66.40
78117;BME280;69042;59.120;37.904;2023-12-07T11:53:46;102556.75;;;-6.85;66.59
78117;BME280;69042;59.120;37.904;2023-12-07T11:56:14;102555.88;;;-6.86;66.74
78117;BME280;69042;59.120;37.904;2023-12-07T11:58:45;102560.97;;;-6.86;66.66
78117;BME280;69042;59.120;37.904;2023-12-07T12:01:12;102551.66;;;-6.85;66.89
78117;BME280;69042;59.120;37.904;2023-12-07T12:03:38;102568.47;;;-6.87;66.95
78117;BME280;69042;59.120;37.904;2023-12-07T12:06:06;102563.19;;;-6.91;66.13
78117;BME280;69042;59.120;37.904;2023-12-07T12:08:34;102565.44;;;-6.95;66.55
78117;BME280;69042;59.120;37.904;2023-12-07T12:11:00;102568.53;;;-6.99;66.66
78117;BME280;69042;59.120;37.904;2023-12-07T12:13:33;102562.47;;;-7.01;66.27
78117;BME280;69042;59.120;37.904;2023-12-07T12:16:00;102569.97;;;-7.03;66.66
78117;BME280;69042;59.120;37.904;2023-12-07T12:18:27;102565.88;;;-7.01;67.24
78117;BME280;69042;59.120;37.904;2023-12-07T12:20:54;102568.66;;;-6.98;67.19
78117;BME280;69042;59.120;37.904;2023-12-07T12:23:21;102570.50;;;-6.95;67.22
78117;BME280;69042;59.120;37.904;2023-12-07T12:25:47;102574.25;;;-6.90;67.46
78117;BME280;69042;59.120;37.904;2023-12-07T12:28:16;102570.34;;;-6.85;66.87
78117;BME280;69042;59.120;37.904;2023-12-07T12:30:44;102568.22;;;-6.79;67.01
78117;BME280;69042;59.120;37.904;2023-12-07T12:33:10;102561.03;;;-6.73;67.18
78117;BME280;69042;59.120;37.904;2023-12-07T12:35:36;102565.31;;;-6.72;66.11
78117;BME280;69042;59.120;37.904;2023-12-07T12:38:09;102570.88;;;-6.77;66.34
78117;BME280;69042;59.120;37.904;2023-12-07T12:40:36;102563.63;;;-6.84;66.32
78117;BME280;69042;59.120;37.904;2023-12-07T12:43:03;102564.06;;;-6.90;66.11
78117;BME280;69042;59.120;37.904;2023-12-07T12:45:29;102568.66;;;-6.98;66.34
78117;BME280;69042;59.120;37.904;2023-12-07T12:47:55;102561.59;;;-7.02;66.31
78117;BME280;69042;59.120;37.904;2023-12-07T12:50:49;102573.97;;;-7.06;66.63
78117;BME280;69042;59.120;37.904;2023-12-07T12:53:16;102573.84;;;-7.08;66.97
78117;BME280;69042;59.120;37.904;2023-12-07T12:55:42;102579.81;;;-7.07;67.00
78117;BME280;69042;59.120;37.904;2023-12-07T12:58:09;102569.75;;;-7.06;66.78